63AR weather

Stokes Airport
Earle, Arkansas, United States

Public forecast

Using degrees Fahrenheit for public forecast. Weather courtesy of forecast.io.

Closest aviation weather report (METAR) to Stokes Airport

Closest report is West Memphis Municipal Airport, 13.0 nm (24.1 km) ESE. Retrieved 2019/10/16 04:27 UTC (0 seconds ago):

KAWM 160427Z AUTO 22004KT 4SM -RA BR OVC004 20/20 A2987 RMK AO2 RAB0359 P0001 T02000200

Closest aviation forecast (TAF) to Stokes Airport

Closest forecast is Memphis International Airport, 26.8 nm (49.6 km) ESE. Retrieved 2019-10-16 04:00 UTC (24 minutes ago):

TAF COR KMEM 160359Z 1604/1706 21006KT P6SM VCSH SCT006 OVC011 TEMPO 1604/1605 BKN006 FM160500 35012G20KT P6SM VCSH BKN025 BKN050 FM161200 36012KT P6SM SKC FM162100 33007KT P6SM SKC